Time;durP1;ratioP1;P1;durP2;ratioP2;P2;SDS_P1;SDS_P2;PMS_P1;PMS_P2;Temp;Humidity;BMP_temperature;BMP_pressure;BME280_temperature;BME280_humidity;BME280_pressure;Samples;Min_cycle;Max_cycle;Signal;HPM_P1;HPM_P2
2023/03/17 00:01:50;;;;;;;2.93;2.73;;;10.90;99.90;;;;;;4872771;29;20230;-61
2023/03/17 00:04:18;;;;;;;2.80;2.60;;;10.80;99.90;;;;;;4874335;29;20566;-61
2023/03/17 00:06:47;;;;;;;2.77;2.57;;;10.80;99.90;;;;;;4872667;29;20335;-61
2023/03/17 00:09:17;;;;;;;2.70;2.57;;;10.80;99.90;;;;;;4869817;29;20230;-62
2023/03/17 00:11:48;;;;;;;2.80;2.60;;;10.80;99.90;;;;;;4854176;29;20955;-61
2023/03/17 00:14:16;;;;;;;3.10;2.40;;;10.70;99.90;;;;;;4872635;29;20227;-61
2023/03/17 00:16:48;;;;;;;2.63;2.50;;;10.60;99.90;;;;;;4872682;29;20234;-61
2023/03/17 00:19:18;;;;;;;3.50;2.60;;;10.60;99.90;;;;;;4872594;29;20290;-62
2023/03/17 00:21:46;;;;;;;2.53;2.40;;;10.50;99.90;;;;;;4872817;29;20226;-62
2023/03/17 00:24:14;;;;;;;3.23;3.00;;;10.60;99.90;;;;;;4874117;29;20226;-62
2023/03/17 00:26:43;;;;;;;2.90;2.70;;;10.50;99.90;;;;;;4869258;29;20226;-62
2023/03/17 00:29:15;;;;;;;4.50;2.60;;;10.50;99.90;;;;;;4866928;29;20224;-61
2023/03/17 00:31:44;;;;;;;3.70;2.47;;;10.50;99.90;;;;;;4871950;29;20756;-61
2023/03/17 00:34:16;;;;;;;2.40;2.20;;;10.50;99.90;;;;;;4870889;29;20250;-61
2023/03/17 00:36:48;;;;;;;2.90;2.20;;;10.50;99.90;;;;;;4858732;29;20222;-61
2023/03/17 00:39:17;;;;;;;2.40;2.30;;;10.50;99.90;;;;;;4874956;29;20219;-61
2023/03/17 00:41:45;;;;;;;2.60;2.40;;;10.50;99.90;;;;;;4875171;29;20279;-61
2023/03/17 00:44:19;;;;;;;2.53;2.40;;;10.50;99.90;;;;;;4874233;29;20824;-61
2023/03/17 00:46:47;;;;;;;3.17;2.37;;;10.40;99.90;;;;;;4872151;29;20231;-61
2023/03/17 00:49:18;;;;;;;3.13;2.87;;;10.50;99.90;;;;;;4854031;29;20302;-61
2023/03/17 00:51:49;;;;;;;2.43;2.33;;;10.40;99.90;;;;;;4870172;29;20222;-61
2023/03/17 00:54:19;;;;;;;2.90;2.70;;;10.40;99.90;;;;;;4874545;29;20235;-61
2023/03/17 00:56:49;;;;;;;3.70;2.57;;;10.30;99.90;;;;;;4871159;29;20246;-60
2023/03/17 00:59:26;;;;;;;2.63;2.40;;;10.40;99.90;;;;;;4869448;29;20286;-61
2023/03/17 01:01:55;;;;;;;4.93;2.50;;;10.30;99.90;;;;;;4871669;29;20226;-61
2023/03/17 01:04:23;;;;;;;3.50;2.70;;;10.20;99.90;;;;;;4876141;29;20199;-61
2023/03/17 01:06:52;;;;;;;4.50;2.80;;;10.20;99.90;;;;;;4870920;29;20254;-61
2023/03/17 01:09:25;;;;;;;3.00;2.60;;;10.20;99.90;;;;;;4872063;29;20223;-61
2023/03/17 01:11:53;;;;;;;3.20;3.00;;;10.20;99.90;;;;;;4871691;29;20732;-61
2023/03/17 01:14:24;;;;;;;2.73;2.53;;;10.20;99.90;;;;;;4873246;29;20294;-61
2023/03/17 01:16:53;;;;;;;3.00;2.80;;;10.10;99.90;;;;;;4873226;29;20223;-61
2023/03/17 01:19:22;;;;;;;2.63;2.43;;;10.10;99.90;;;;;;4871546;29;20199;-61
2023/03/17 01:21:51;;;;;;;3.73;2.73;;;10.10;99.90;;;;;;4874434;29;20211;-61
2023/03/17 01:24:19;;;;;;;3.90;2.70;;;10.10;99.90;;;;;;4870471;29;20751;-61
2023/03/17 01:26:48;;;;;;;2.70;2.57;;;10.20;99.90;;;;;;4868326;29;20242;-61
2023/03/17 01:29:16;;;;;;;2.73;2.63;;;10.20;99.90;;;;;;4872733;29;20690;-61
2023/03/17 01:31:46;;;;;;;2.67;2.47;;;10.20;99.90;;;;;;4872370;29;20697;-61
2023/03/17 01:34:14;;;;;;;2.50;2.40;;;10.30;99.90;;;;;;4871427;29;20242;-61
2023/03/17 01:36:43;;;;;;;2.33;2.23;;;10.30;99.90;;;;;;4872500;29;20214;-61
2023/03/17 01:39:11;;;;;;;3.53;2.53;;;10.30;99.90;;;;;;4874136;29;20219;-62
2023/03/17 01:41:39;;;;;;;2.37;2.27;;;10.30;99.90;;;;;;4872595;29;20226;-61
2023/03/17 01:44:17;;;;;;;6.13;2.50;;;10.30;99.90;;;;;;4866505;29;20713;-61
2023/03/17 01:46:48;;;;;;;2.77;2.50;;;10.20;99.90;;;;;;4868485;29;20234;-61
2023/03/17 01:49:22;;;;;;;2.67;2.47;;;10.20;99.90;;;;;;4872842;29;20199;-62
2023/03/17 01:52:02;;;;;;;2.33;2.30;;;10.20;99.90;;;;;;4866856;29;20612;-61
2023/03/17 01:54:35;;;;;;;2.80;2.60;;;10.20;99.90;;;;;;4875527;29;20227;-62
2023/03/17 01:57:09;;;;;;;2.70;2.50;;;10.20;99.90;;;;;;4871567;29;20763;-61
2023/03/17 01:59:43;;;;;;;2.80;2.60;;;10.20;99.90;;;;;;4872775;29;20578;-61
2023/03/17 02:02:18;;;;;;;2.40;2.30;;;10.20;99.90;;;;;;4862071;29;20246;-61
2023/03/17 02:04:46;;;;;;;2.53;2.33;;;10.20;99.90;;;;;;4871036;29;20233;-62
2023/03/17 02:07:14;;;;;;;4.47;2.30;;;10.20;99.90;;;;;;4872617;29;20203;-61
2023/03/17 02:09:43;;;;;;;2.77;2.50;;;10.10;99.90;;;;;;4868213;29;20219;-61
2023/03/17 02:12:12;;;;;;;2.53;2.27;;;10.00;99.90;;;;;;4869718;29;20226;-61
2023/03/17 02:14:41;;;;;;;2.87;2.67;;;10.10;99.90;;;;;;4870474;29;20264;-61
2023/03/17 02:17:09;;;;;;;2.30;2.20;;;10.10;99.90;;;;;;4874214;29;20230;-61
2023/03/17 02:19:39;;;;;;;2.97;2.30;;;10.10;99.90;;;;;;4871389;29;20203;-61
2023/03/17 02:22:09;;;;;;;2.30;2.20;;;10.00;99.90;;;;;;4865200;29;20275;-61
2023/03/17 02:24:42;;;;;;;2.50;2.40;;;10.00;99.90;;;;;;4873271;29;20226;-61
2023/03/17 02:27:14;;;;;;;2.73;2.60;;;10.00;99.90;;;;;;4873211;29;20444;-62
2023/03/17 02:29:45;;;;;;;8.30;2.60;;;10.00;99.90;;;;;;4874982;29;20226;-61
2023/03/17 02:32:16;;;;;;;2.77;2.50;;;10.00;99.90;;;;;;4861413;29;20230;-61
2023/03/17 02:34:45;;;;;;;2.67;2.47;;;9.90;99.90;;;;;;4874143;29;20245;-61
2023/03/17 02:37:15;;;;;;;3.40;2.47;;;9.90;99.90;;;;;;4873561;29;20235;-61
2023/03/17 02:39:43;;;;;;;7.20;2.50;;;9.80;99.90;;;;;;4873105;29;20651;-61
2023/03/17 02:42:12;;;;;;;3.10;2.90;;;9.80;99.90;;;;;;4875427;29;20252;-62
2023/03/17 02:44:41;;;;;;;2.97;2.70;;;9.70;99.90;;;;;;4873736;29;20219;-61
2023/03/17 02:47:10;;;;;;;3.10;2.40;;;9.70;99.90;;;;;;4874258;29;20298;-61
2023/03/17 02:49:39;;;;;;;2.77;2.57;;;9.60;99.90;;;;;;4872843;29;20191;-61
2023/03/17 02:52:08;;;;;;;3.60;3.10;;;9.60;99.90;;;;;;4874287;29;20266;-61
2023/03/17 02:54:38;;;;;;;3.20;3.00;;;9.60;99.90;;;;;;4870667;29;20254;-62
2023/03/17 02:57:07;;;;;;;3.50;2.90;;;9.60;99.90;;;;;;4859078;29;20755;-61
2023/03/17 02:59:37;;;;;;;3.30;3.00;;;9.60;99.90;;;;;;4876182;29;20227;-61
2023/03/17 03:02:05;;;;;;;3.80;2.90;;;9.60;99.90;;;;;;4875033;29;20227;-61
2023/03/17 03:04:34;;;;;;;3.00;2.90;;;9.70;99.90;;;;;;4872957;29;20283;-61
2023/03/17 03:07:03;;;;;;;7.93;3.33;;;9.80;99.90;;;;;;4870342;29;20208;-61
2023/03/17 03:09:31;;;;;;;3.50;2.83;;;9.80;99.90;;;;;;4874054;29;20230;-61
2023/03/17 03:12:01;;;;;;;4.07;3.20;;;9.70;99.90;;;;;;4871922;29;20686;-62
2023/03/17 03:14:29;;;;;;;3.60;3.30;;;9.70;99.90;;;;;;4879170;29;20226;-61
2023/03/17 03:16:58;;;;;;;3.40;3.20;;;9.60;99.90;;;;;;4869939;29;20582;-61
2023/03/17 03:19:27;;;;;;;3.30;2.97;;;9.60;99.90;;;;;;4874166;29;20209;-61
2023/03/17 03:21:55;;;;;;;3.10;2.90;;;9.60;99.90;;;;;;4871566;29;20199;-61
2023/03/17 03:24:23;;;;;;;4.47;3.07;;;9.60;99.90;;;;;;4874865;29;20271;-61
2023/03/17 03:26:52;;;;;;;3.37;3.00;;;9.60;99.90;;;;;;4868177;29;20733;-61
2023/03/17 03:29:21;;;;;;;4.37;3.07;;;9.60;99.90;;;;;;4874154;29;20262;-61
2023/03/17 03:31:50;;;;;;;3.73;3.00;;;9.70;99.90;;;;;;4873216;29;20226;-61
2023/03/17 03:34:18;;;;;;;3.57;3.23;;;9.60;99.90;;;;;;4872793;29;20218;-61
2023/03/17 03:36:47;;;;;;;3.13;2.60;;;9.70;99.90;;;;;;4871357;29;20280;-61
2023/03/17 03:39:15;;;;;;;4.70;3.27;;;9.80;99.90;;;;;;4873731;29;20749;-61
2023/03/17 03:41:43;;;;;;;3.47;3.17;;;9.80;99.90;;;;;;4873804;29;20944;-61
2023/03/17 03:44:11;;;;;;;3.43;3.10;;;9.70;99.90;;;;;;4871201;29;21253;-61
2023/03/17 03:46:41;;;;;;;4.43;2.97;;;9.70;99.90;;;;;;4872948;29;20559;-61
2023/03/17 03:49:10;;;;;;;3.63;2.90;;;9.70;99.90;;;;;;4872308;29;20646;-61
2023/03/17 03:51:38;;;;;;;3.10;2.90;;;9.70;99.90;;;;;;4866933;29;20417;-61
2023/03/17 03:54:06;;;;;;;3.20;2.93;;;9.70;99.90;;;;;;4874088;29;20287;-62
2023/03/17 03:56:34;;;;;;;4.07;3.10;;;9.70;99.90;;;;;;4872949;29;20219;-61
2023/03/17 03:59:02;;;;;;;3.43;3.23;;;9.70;99.90;;;;;;4865071;29;20234;-62
2023/03/17 04:01:31;;;;;;;3.00;2.80;;;9.70;99.90;;;;;;4875689;29;20733;-61
2023/03/17 04:04:01;;;;;;;3.20;2.90;;;9.60;99.90;;;;;;4869348;29;20199;-61
2023/03/17 04:06:29;;;;;;;3.17;2.93;;;9.60;99.90;;;;;;4870797;29;20226;-61
2023/03/17 04:08:57;;;;;;;4.37;3.17;;;9.60;99.90;;;;;;4875141;29;20221;-61
2023/03/17 04:11:26;;;;;;;3.43;3.20;;;9.60;99.90;;;;;;4871462;29;20235;-61
2023/03/17 04:13:54;;;;;;;2.97;2.80;;;9.60;99.90;;;;;;4873859;29;20226;-61
2023/03/17 04:16:23;;;;;;;3.27;3.00;;;9.60;99.90;;;;;;4869625;29;20235;-61
2023/03/17 04:18:51;;;;;;;3.30;3.10;;;9.50;99.90;;;;;;4870405;29;20319;-61
2023/03/17 04:21:21;;;;;;;3.10;2.80;;;9.50;99.90;;;;;;4869590;29;20218;-61
2023/03/17 04:23:49;;;;;;;3.07;2.87;;;9.50;99.90;;;;;;4866252;29;20241;-61
2023/03/17 04:26:17;;;;;;;5.60;2.97;;;9.40;99.90;;;;;;4874350;29;20225;-61
2023/03/17 04:28:46;;;;;;;2.73;2.60;;;9.40;99.90;;;;;;4867117;29;20322;-61
2023/03/17 04:31:15;;;;;;;4.20;2.80;;;9.30;99.90;;;;;;4871954;29;20199;-61
2023/03/17 04:33:43;;;;;;;3.63;3.33;;;9.40;99.90;;;;;;4873444;29;20237;-61
2023/03/17 04:36:18;;;;;;;2.90;2.70;;;9.50;99.90;;;;;;4873815;29;20231;-61
2023/03/17 04:38:48;;;;;;;5.43;3.27;;;9.50;99.90;;;;;;4872305;29;20261;-62
2023/03/17 04:41:16;;;;;;;4.50;3.17;;;9.50;99.90;;;;;;4870467;29;20215;-62
2023/03/17 04:43:45;;;;;;;4.20;3.27;;;9.30;99.90;;;;;;4870953;29;20258;-61
2023/03/17 04:46:13;;;;;;;6.97;3.03;;;9.30;99.90;;;;;;4879070;29;20581;-61
2023/03/17 04:48:42;;;;;;;5.10;2.83;;;9.20;99.90;;;;;;4871791;29;20782;-61
2023/03/17 04:51:10;;;;;;;6.73;2.90;;;9.10;99.90;;;;;;4874083;29;20279;-61
2023/03/17 04:53:39;;;;;;;2.87;2.60;;;9.00;99.90;;;;;;4861040;29;20237;-61
2023/03/17 04:56:08;;;;;;;3.67;2.90;;;8.90;99.90;;;;;;4849560;29;20238;-61
2023/03/17 04:58:37;;;;;;;5.00;3.00;;;8.80;99.90;;;;;;4870009;29;20234;-61
2023/03/17 05:01:06;;;;;;;8.93;3.37;;;8.80;99.90;;;;;;4874805;29;20209;-61
2023/03/17 05:03:34;;;;;;;4.30;3.20;;;8.70;99.90;;;;;;4876355;29;20233;-61
2023/03/17 05:06:04;;;;;;;4.33;2.97;;;8.70;99.90;;;;;;4874169;29;20701;-61
2023/03/17 05:08:32;;;;;;;6.10;4.03;;;8.60;99.90;;;;;;4869103;29;20282;-61
2023/03/17 05:11:01;;;;;;;7.43;3.67;;;8.70;99.90;;;;;;4866639;29;20235;-61
2023/03/17 05:13:30;;;;;;;6.27;3.40;;;8.70;99.90;;;;;;4870208;29;20209;-60
2023/03/17 05:16:00;;;;;;;4.97;3.10;;;8.70;99.90;;;;;;4871001;29;20274;-62
2023/03/17 05:18:28;;;;;;;5.17;2.90;;;8.70;99.90;;;;;;4870195;29;20587;-61
2023/03/17 05:20:56;;;;;;;2.83;2.63;;;8.70;99.90;;;;;;4873149;29;20237;-61
2023/03/17 05:23:25;;;;;;;4.07;3.27;;;8.70;99.90;;;;;;4870596;29;20224;-61
2023/03/17 05:25:53;;;;;;;5.00;3.40;;;8.70;99.90;;;;;;4870123;29;20246;-61
2023/03/17 05:28:21;;;;;;;2.83;2.63;;;8.70;99.90;;;;;;4869216;29;20254;-61
2023/03/17 05:30:51;;;;;;;3.57;2.80;;;8.70;99.90;;;;;;4871660;29;20673;-61
2023/03/17 05:33:20;;;;;;;4.20;3.07;;;8.80;99.90;;;;;;4869490;29;20298;-61
2023/03/17 05:35:48;;;;;;;6.87;3.60;;;8.80;99.90;;;;;;4870445;29;20223;-61
2023/03/17 05:38:17;;;;;;;3.07;2.87;;;8.80;99.90;;;;;;4868684;29;20234;-61
2023/03/17 05:40:48;;;;;;;3.57;3.27;;;8.70;99.90;;;;;;4872795;29;20226;-61
2023/03/17 05:43:17;;;;;;;5.07;3.43;;;8.80;99.90;;;;;;4866654;29;20781;-61
2023/03/17 05:45:46;;;;;;;5.40;3.33;;;8.80;99.90;;;;;;4871794;29;20305;-61
2023/03/17 05:48:16;;;;;;;3.43;3.23;;;8.80;99.90;;;;;;4872805;29;20232;-61
2023/03/17 05:50:44;;;;;;;4.83;3.40;;;8.80;99.90;;;;;;4871744;29;20229;-61
2023/03/17 05:53:13;;;;;;;3.73;3.20;;;8.90;99.90;;;;;;4872129;29;20275;-61
2023/03/17 05:55:41;;;;;;;4.73;3.40;;;8.90;99.90;;;;;;4873086;29;20238;-61
2023/03/17 05:58:09;;;;;;;3.73;2.97;;;8.90;99.90;;;;;;4870870;29;20226;-61
2023/03/17 06:00:37;;;;;;;3.27;2.90;;;9.00;99.90;;;;;;4872822;29;20230;-61
2023/03/17 06:03:06;;;;;;;3.40;3.10;;;8.90;99.90;;;;;;4874894;29;20254;-61
2023/03/17 06:05:36;;;;;;;4.37;3.27;;;8.90;99.90;;;;;;4873193;29;20241;-61
2023/03/17 06:08:05;;;;;;;4.20;3.30;;;8.90;99.90;;;;;;4876687;29;20222;-61
2023/03/17 06:10:33;;;;;;;3.80;2.90;;;8.80;99.90;;;;;;4871576;29;20270;-61
2023/03/17 06:13:03;;;;;;;5.70;3.23;;;8.80;99.90;;;;;;4873273;29;20210;-61
2023/03/17 06:15:32;;;;;;;3.90;3.50;;;8.80;99.90;;;;;;4880129;29;20226;-62
2023/03/17 06:18:03;;;;;;;4.13;3.37;;;8.80;99.90;;;;;;4859832;29;20352;-61
2023/03/17 06:20:32;;;;;;;3.97;3.10;;;8.80;99.90;;;;;;4871735;29;20673;-61
2023/03/17 06:23:02;;;;;;;3.83;3.37;;;8.70;99.90;;;;;;4875398;29;20230;-61
2023/03/17 06:25:33;;;;;;;3.30;3.03;;;8.70;99.90;;;;;;4874860;29;20538;-61
2023/03/17 06:28:02;;;;;;;2.77;2.67;;;8.70;99.90;;;;;;4875004;29;20737;-61
2023/03/17 06:30:31;;;;;;;6.63;3.17;;;8.70;99.90;;;;;;4874934;29;20258;-62
2023/03/17 06:33:00;;;;;;;5.03;3.50;;;8.70;99.90;;;;;;4859690;29;20234;-61
2023/03/17 06:35:29;;;;;;;3.90;2.90;;;8.80;99.90;;;;;;4873471;29;20298;-61
2023/03/17 06:38:02;;;;;;;4.13;3.20;;;8.80;99.90;;;;;;4873111;29;20226;-61
2023/03/17 06:40:31;;;;;;;3.53;3.23;;;8.80;99.90;;;;;;4874378;29;20248;-61
2023/03/17 06:43:00;;;;;;;4.03;3.10;;;8.90;99.90;;;;;;4874067;29;20210;-61
2023/03/17 06:45:28;;;;;;;3.40;3.10;;;8.90;99.90;;;;;;4879977;29;20227;-61
2023/03/17 06:47:57;;;;;;;4.10;3.47;;;8.90;99.90;;;;;;4877780;29;20226;-61
2023/03/17 06:50:25;;;;;;;3.90;3.50;;;8.90;99.90;;;;;;4878110;29;20215;-61
2023/03/17 06:52:54;;;;;;;5.63;3.47;;;9.00;99.90;;;;;;4870677;29;20278;-61
2023/03/17 06:55:23;;;;;;;6.97;3.10;;;9.00;99.90;;;;;;4871353;29;20202;-61
2023/03/17 06:57:53;;;;;;;6.20;3.10;;;9.10;99.90;;;;;;4869329;29;21972;-61
2023/03/17 07:00:22;;;;;;;5.70;3.30;;;9.20;99.90;;;;;;4856505;29;20376;-61
2023/03/17 07:02:51;;;;;;;5.37;3.40;;;9.20;99.90;;;;;;4884985;29;20218;-61
2023/03/17 07:05:19;;;;;;;10.63;3.20;;;9.30;99.90;;;;;;4871598;29;20714;-61
2023/03/17 07:07:48;;;;;;;5.57;3.20;;;9.40;99.90;;;;;;4877514;29;20230;-61
2023/03/17 07:10:17;;;;;;;8.13;3.57;;;9.50;99.90;;;;;;4871285;29;20634;-61
2023/03/17 07:12:46;;;;;;;4.90;3.60;;;9.60;99.90;;;;;;4870684;29;20224;-61
2023/03/17 07:15:16;;;;;;;3.77;3.30;;;9.70;99.90;;;;;;4876966;29;20218;-61
2023/03/17 07:17:45;;;;;;;4.13;3.50;;;9.70;99.90;;;;;;4873034;29;20593;-61
2023/03/17 07:20:14;;;;;;;6.27;3.30;;;9.80;99.90;;;;;;4875983;29;20232;-62
2023/03/17 07:22:42;;;;;;;6.43;3.57;;;9.90;99.90;;;;;;4876116;29;20254;-61
2023/03/17 07:25:11;;;;;;;8.13;3.27;;;10.00;99.90;;;;;;4874268;29;20527;-62
2023/03/17 07:27:39;;;;;;;4.00;3.40;;;10.00;99.90;;;;;;4874629;29;20714;-61
2023/03/17 07:30:11;;;;;;;6.07;3.07;;;10.10;99.90;;;;;;4874461;29;20219;-62
2023/03/17 07:32:40;;;;;;;7.57;3.30;;;10.20;99.90;;;;;;4871183;29;20222;-61
2023/03/17 07:35:09;;;;;;;3.73;3.40;;;10.30;99.90;;;;;;4869619;29;20605;-61
2023/03/17 07:37:38;;;;;;;4.00;3.13;;;10.30;99.90;;;;;;4877294;29;20211;-60
2023/03/17 07:40:09;;;;;;;5.43;3.40;;;10.40;99.90;;;;;;4876336;29;20203;-61
2023/03/17 07:42:38;;;;;;;4.33;3.27;;;10.50;99.90;;;;;;4876113;29;20226;-62
2023/03/17 07:45:07;;;;;;;6.00;3.30;;;10.60;99.90;;;;;;4877686;29;20227;-61
2023/03/17 07:47:38;;;;;;;4.40;3.20;;;10.60;99.90;;;;;;4877114;29;20298;-61
2023/03/17 07:50:07;;;;;;;3.83;3.53;;;10.70;99.90;;;;;;4874697;29;20363;-61
2023/03/17 07:52:35;;;;;;;5.77;3.27;;;10.80;99.90;;;;;;4868781;29;20648;-61
2023/03/17 07:55:03;;;;;;;3.80;3.27;;;10.90;99.90;;;;;;4871837;29;20254;-62
2023/03/17 07:57:32;;;;;;;7.00;3.53;;;11.00;99.90;;;;;;4869422;29;20231;-61
2023/03/17 08:00:00;;;;;;;5.23;3.50;;;11.00;99.90;;;;;;4873318;29;20734;-61
2023/03/17 08:02:28;;;;;;;5.80;3.37;;;11.10;99.90;;;;;;4869306;29;20227;-61
2023/03/17 08:04:58;;;;;;;6.13;3.20;;;11.20;99.90;;;;;;4874091;29;20233;-61
2023/03/17 08:07:26;;;;;;;5.50;3.40;;;11.30;99.90;;;;;;4871268;29;20192;-61
2023/03/17 08:09:55;;;;;;;6.10;3.90;;;11.40;99.90;;;;;;4874177;29;20207;-61
2023/03/17 08:12:23;;;;;;;6.63;3.23;;;11.40;99.90;;;;;;4880823;29;20228;-61
2023/03/17 08:14:52;;;;;;;5.57;3.17;;;11.50;99.90;;;;;;4870406;29;20239;-61
2023/03/17 08:17:20;;;;;;;5.60;3.07;;;11.50;99.90;;;;;;4875232;29;20235;-61
2023/03/17 08:19:49;;;;;;;4.37;3.40;;;11.60;99.90;;;;;;4876574;29;20226;-61
2023/03/17 08:22:19;;;;;;;7.03;3.33;;;11.60;99.90;;;;;;4871424;29;20206;-61
2023/03/17 08:24:47;;;;;;;3.83;3.20;;;11.80;99.90;;;;;;4868766;29;20317;-61
2023/03/17 08:27:17;;;;;;;3.63;3.27;;;12.10;99.90;;;;;;4870374;29;20230;-61
2023/03/17 08:29:45;;;;;;;6.17;3.47;;;12.20;99.90;;;;;;4871125;29;20279;-61
2023/03/17 08:32:14;;;;;;;7.90;4.00;;;12.20;99.90;;;;;;4871583;29;20226;-61
2023/03/17 08:34:43;;;;;;;4.43;3.37;;;12.30;99.90;;;;;;4863639;29;20224;-61
2023/03/17 08:37:11;;;;;;;7.23;3.47;;;12.50;99.90;;;;;;4869584;29;20654;-61
2023/03/17 08:39:41;;;;;;;4.67;3.50;;;12.60;99.90;;;;;;4865506;29;20231;-62
2023/03/17 08:42:10;;;;;;;3.90;3.27;;;12.80;99.90;;;;;;4870300;29;20230;-61
2023/03/17 08:44:38;;;;;;;6.60;3.40;;;12.80;99.90;;;;;;4868859;29;20239;-62
2023/03/17 08:47:09;;;;;;;5.53;3.40;;;12.80;99.90;;;;;;4870103;29;20229;-61
2023/03/17 08:49:37;;;;;;;6.47;3.40;;;12.70;99.90;;;;;;4872563;29;20240;-61
2023/03/17 08:52:05;;;;;;;7.37;3.47;;;12.60;99.90;;;;;;4870725;29;20191;-62
2023/03/17 08:54:35;;;;;;;6.90;4.00;;;12.70;99.90;;;;;;4854855;29;20302;-62
2023/03/17 08:57:05;;;;;;;7.30;3.87;;;12.80;99.90;;;;;;4868680;29;20725;-61
2023/03/17 08:59:33;;;;;;;3.83;3.53;;;12.80;99.90;;;;;;4870984;29;20224;-61
2023/03/17 09:02:01;;;;;;;5.87;3.80;;;12.90;99.90;;;;;;4869084;29;20230;-61
2023/03/17 09:04:31;;;;;;;7.30;4.03;;;13.00;99.90;;;;;;4867560;29;20225;-61
2023/03/17 09:07:00;;;;;;;5.27;4.00;;;13.40;99.90;;;;;;4852058;29;20190;-62
2023/03/17 09:09:33;;;;;;;11.10;3.50;;;13.80;99.90;;;;;;4868908;29;20743;-62
2023/03/17 09:12:03;;;;;;;7.03;3.63;;;14.10;99.90;;;;;;4870412;29;20230;-62
2023/03/17 09:14:33;;;;;;;4.40;3.53;;;14.10;99.90;;;;;;4869021;29;20231;-62
2023/03/17 09:17:10;;;;;;;7.00;3.77;;;14.10;99.90;;;;;;4869577;29;20222;-62
2023/03/17 09:19:39;;;;;;;4.23;3.20;;;14.00;99.90;;;;;;4868390;29;20730;-61
2023/03/17 09:22:07;;;;;;;9.07;3.60;;;13.60;99.90;;;;;;4868907;29;20195;-62
2023/03/17 09:24:36;;;;;;;4.03;3.30;;;13.40;99.90;;;;;;4868138;29;20234;-61
2023/03/17 09:27:05;;;;;;;6.10;3.50;;;13.40;99.90;;;;;;4871025;29;20248;-61
2023/03/17 09:29:35;;;;;;;4.93;3.73;;;13.50;99.90;;;;;;4867550;29;20223;-62
2023/03/17 09:32:03;;;;;;;5.53;3.70;;;13.90;99.90;;;;;;4873464;29;20234;-62
2023/03/17 09:34:31;;;;;;;9.37;3.90;;;14.20;99.90;;;;;;4873061;29;20282;-61
2023/03/17 09:37:00;;;;;;;9.93;4.07;;;14.40;99.90;;;;;;4874756;29;20266;-62
2023/03/17 09:39:28;;;;;;;4.77;4.10;;;14.40;99.90;;;;;;4876328;29;20272;-62
2023/03/17 09:42:15;;;;;;;6.13;3.90;;;14.40;99.90;;;;;;4872347;29;20328;-62
2023/03/17 09:45:03;;;;;;;8.43;3.60;;;14.20;99.90;;;;;;4871070;29;20230;-62
2023/03/17 09:47:51;;;;;;;4.07;3.50;;;14.10;99.90;;;;;;4868482;29;20226;-62
2023/03/17 09:50:25;;;;;;;3.90;3.60;;;14.10;99.90;;;;;;4858127;29;20275;-62
2023/03/17 09:52:56;;;;;;;8.03;3.90;;;14.20;99.90;;;;;;4872048;29;20253;-62
2023/03/17 09:55:27;;;;;;;6.63;3.77;;;14.30;99.90;;;;;;4868853;29;20203;-61
2023/03/17 09:57:59;;;;;;;7.00;4.00;;;14.40;99.90;;;;;;4872842;29;20227;-62
2023/03/17 10:00:30;;;;;;;9.43;3.80;;;14.60;99.90;;;;;;4870200;29;20714;-62
2023/03/17 10:03:01;;;;;;;3.73;3.40;;;14.60;99.90;;;;;;4869964;29;20399;-62
2023/03/17 10:05:31;;;;;;;5.20;3.40;;;14.50;99.90;;;;;;4870576;29;20227;-62
2023/03/17 10:08:06;;;;;;;4.33;3.60;;;14.40;99.90;;;;;;4871108;29;20227;-62
2023/03/17 10:11:00;;;;;;;3.90;3.43;;;14.50;99.90;;;;;;4867127;29;20229;-62
2023/03/17 10:13:45;;;;;;;5.90;4.10;;;14.40;99.90;;;;;;4872131;29;20199;-61
2023/03/17 10:16:17;;;;;;;5.13;3.93;;;14.50;99.90;;;;;;4876132;29;20251;-62
2023/03/17 10:18:51;;;;;;;7.70;3.70;;;14.70;99.90;;;;;;4871211;29;20279;-62
2023/03/17 10:21:25;;;;;;;8.10;3.73;;;14.90;99.90;;;;;;4869233;29;20559;-62
2023/03/17 10:23:55;;;;;;;4.33;3.37;;;15.30;99.90;;;;;;4871015;29;20229;-62
2023/03/17 10:26:29;;;;;;;7.23;4.00;;;15.70;99.90;;;;;;4872171;29;20231;-62
2023/03/17 10:29:02;;;;;;;7.13;3.20;;;16.30;99.90;;;;;;4870414;29;20236;-62
2023/03/17 10:31:34;;;;;;;6.50;4.10;;;16.80;99.90;;;;;;4866603;29;20197;-62
2023/03/17 10:34:13;;;;;;;6.53;3.87;;;16.80;99.90;;;;;;4856935;29;20218;-62
2023/03/17 10:36:44;;;;;;;5.10;3.70;;;16.70;99.90;;;;;;4867802;29;20231;-62
2023/03/17 10:39:17;;;;;;;6.17;3.87;;;16.60;99.90;;;;;;4870955;29;20232;-62
2023/03/17 10:41:54;;;;;;;6.23;4.10;;;16.80;99.90;;;;;;4868715;29;20234;-62
2023/03/17 10:44:40;;;;;;;6.17;3.70;;;17.00;99.90;;;;;;4873800;29;20238;-62
2023/03/17 10:47:39;;;;;;;5.87;4.00;;;17.00;99.90;;;;;;4873595;29;20283;-62
2023/03/17 10:50:21;;;;;;;7.50;3.73;;;16.70;99.90;;;;;;4870309;29;20227;-62
2023/03/17 10:52:54;;;;;;;7.40;3.57;;;16.50;99.90;;;;;;4875512;29;20321;-62
2023/03/17 10:55:26;;;;;;;7.07;3.90;;;16.60;99.90;;;;;;4869261;29;20201;-62
2023/03/17 10:58:01;;;;;;;5.57;3.70;;;16.50;99.90;;;;;;4872757;29;20240;-62
2023/03/17 11:00:34;;;;;;;6.80;3.90;;;16.40;99.90;;;;;;4871400;29;20226;-62
2023/03/17 11:03:12;;;;;;;7.67;4.30;;;16.40;99.90;;;;;;4870674;29;20231;-62
2023/03/17 11:05:53;;;;;;;5.50;3.73;;;16.60;99.90;;;;;;4870730;29;20224;-62
2023/03/17 11:08:22;;;;;;;6.53;4.00;;;16.50;99.90;;;;;;4869552;29;20218;-62
2023/03/17 11:10:55;;;;;;;10.43;3.73;;;16.60;99.90;;;;;;4870249;29;20267;-62
2023/03/17 11:13:28;;;;;;;8.57;3.87;;;16.60;99.90;;;;;;4874198;29;20188;-58
2023/03/17 11:16:07;;;;;;;6.00;3.50;;;16.70;99.90;;;;;;4874349;29;20246;-62
2023/03/17 11:18:38;;;;;;;4.43;4.03;;;16.80;99.90;;;;;;4871772;29;20228;-62
2023/03/17 11:21:09;;;;;;;4.37;3.80;;;17.00;99.90;;;;;;4873611;29;20247;-62
2023/03/17 11:23:52;;;;;;;8.40;4.00;;;17.30;99.90;;;;;;4874926;29;20230;-62
2023/03/17 11:26:47;;;;;;;5.57;3.83;;;17.50;99.90;;;;;;4873751;29;20340;-62
2023/03/17 11:29:24;;;;;;;3.87;3.50;;;17.40;99.90;;;;;;4872174;29;20229;-62
2023/03/17 11:32:00;;;;;;;4.93;3.80;;;17.60;99.90;;;;;;4878101;29;20300;-62
2023/03/17 11:34:45;;;;;;;5.40;4.10;;;18.00;99.90;;;;;;4859139;29;20714;-61
2023/03/17 11:37:27;;;;;;;6.93;3.83;;;18.20;99.90;;;;;;4874415;29;20295;-62
2023/03/17 11:40:02;;;;;;;6.87;3.63;;;18.30;99.90;;;;;;4875316;29;20282;-62
2023/03/17 11:42:38;;;;;;;7.13;3.83;;;18.50;99.90;;;;;;4859481;29;20230;-62
2023/03/17 11:45:17;;;;;;;6.63;4.13;;;18.60;99.90;;;;;;4880271;29;20305;-62
2023/03/17 11:47:57;;;;;;;6.23;4.00;;;18.40;99.90;;;;;;4870714;29;20227;-62
2023/03/17 11:50:33;;;;;;;4.40;4.00;;;18.30;99.90;;;;;;4875536;29;20238;-62
2023/03/17 11:53:24;;;;;;;4.83;4.00;;;18.00;99.90;;;;;;4868373;29;20383;-61
2023/03/17 11:56:00;;;;;;;7.67;4.10;;;17.90;99.90;;;;;;4868665;29;20238;-62
2023/03/17 11:58:35;;;;;;;6.73;3.57;;;18.10;99.90;;;;;;4878187;29;20757;-62
2023/03/17 12:01:07;;;;;;;7.83;3.97;;;18.50;99.90;;;;;;4873915;29;20564;-62
2023/03/17 12:03:41;;;;;;;6.07;3.97;;;18.50;99.90;;;;;;4881157;29;20283;-62
2023/03/17 12:06:19;;;;;;;5.30;3.53;;;18.40;99.90;;;;;;4876819;29;20297;-62
2023/03/17 12:08:53;;;;;;;6.77;3.93;;;18.50;99.90;;;;;;4875398;29;20748;-62
2023/03/17 12:11:26;;;;;;;5.70;3.60;;;18.50;99.90;;;;;;4873647;29;20230;-61
2023/03/17 12:13:59;;;;;;;7.03;3.90;;;18.30;99.90;;;;;;4865450;29;20705;-62
2023/03/17 12:16:33;;;;;;;7.23;3.57;;;18.30;99.90;;;;;;4872290;29;20215;-61
2023/03/17 12:19:10;;;;;;;7.20;4.27;;;18.50;99.90;;;;;;4872362;29;20210;-62
2023/03/17 12:21:45;;;;;;;4.83;3.97;;;18.70;99.90;;;;;;4855708;29;20853;-62
2023/03/17 12:24:19;;;;;;;5.17;4.00;;;19.10;99.90;;;;;;4861785;29;20298;-62
2023/03/17 12:26:56;;;;;;;6.97;3.87;;;19.50;99.90;;;;;;4863566;29;21970;-62
2023/03/17 12:29:37;;;;;;;5.60;4.13;;;19.50;99.90;;;;;;4871966;29;20845;-62
2023/03/17 12:32:11;;;;;;;5.43;4.23;;;19.50;99.90;;;;;;4872253;29;20234;-62
2023/03/17 12:34:45;;;;;;;6.40;4.00;;;19.40;99.90;;;;;;4868553;29;20669;-61
2023/03/17 12:37:16;;;;;;;5.77;4.30;;;19.30;99.90;;;;;;4873801;29;20202;-62
2023/03/17 12:39:50;;;;;;;6.73;3.90;;;19.50;99.90;;;;;;4871004;29;20717;-62
2023/03/17 12:42:42;;;;;;;3.93;3.63;;;19.50;99.90;;;;;;4874266;29;20223;-62
2023/03/17 12:45:34;;;;;;;5.43;3.70;;;19.80;99.90;;;;;;4874515;29;20253;-62
2023/03/17 12:48:30;;;;;;;4.80;3.43;;;19.80;99.90;;;;;;4877513;29;20278;-62
2023/03/17 12:51:26;;;;;;;4.27;3.47;;;19.70;99.90;;;;;;4875767;29;20254;-62
2023/03/17 12:53:56;;;;;;;5.43;3.50;;;19.70;99.90;;;;;;4864674;29;21494;-62
2023/03/17 12:56:28;;;;;;;3.90;3.10;;;19.60;99.90;;;;;;4867088;29;20242;-62
2023/03/17 12:59:02;;;;;;;6.30;3.20;;;19.60;99.90;;;;;;4870595;29;20226;-62
2023/03/17 13:01:33;;;;;;;5.10;3.40;;;19.60;99.90;;;;;;4867856;29;20226;-62
2023/03/17 13:04:10;;;;;;;6.73;3.33;;;19.60;99.90;;;;;;4874380;29;20207;-62
2023/03/17 13:06:44;;;;;;;3.63;2.90;;;19.70;99.90;;;;;;4874812;29;20214;-62
2023/03/17 13:09:42;;;;;;;4.13;3.30;;;19.80;99.90;;;;;;4870964;29;20279;-62
2023/03/17 13:12:36;;;;;;;8.57;3.57;;;19.60;99.90;;;;;;4869801;29;20705;-62